createdAt,value
2018-04-22T00:01:11.297Z,13.80
2018-04-22T00:03:44.872Z,13.76
2018-04-22T00:06:17.112Z,13.69
2018-04-22T00:08:50.224Z,13.73
2018-04-22T00:11:23.264Z,13.69
2018-04-22T00:13:57.324Z,13.60
2018-04-22T00:16:29.386Z,13.51
2018-04-22T00:19:03.070Z,13.40
2018-04-22T00:21:32.129Z,13.27
2018-04-22T00:24:05.265Z,13.27
2018-04-22T00:26:38.146Z,13.07
2018-04-22T00:29:19.648Z,13.09
2018-04-22T00:31:52.309Z,13.06
2018-04-22T00:34:25.252Z,13.06
2018-04-22T00:36:57.192Z,13.13
2018-04-22T00:39:30.039Z,13.00
2018-04-22T00:42:01.554Z,12.81
2018-04-22T00:44:35.039Z,12.93
2018-04-22T00:47:07.862Z,12.77
2018-04-22T00:49:40.995Z,12.66
2018-04-22T00:52:14.061Z,12.61
2018-04-22T00:54:46.366Z,12.56
2018-04-22T00:57:18.948Z,12.67
2018-04-22T00:59:51.246Z,12.77
2018-04-22T01:02:23.531Z,12.87
2018-04-22T01:07:33.330Z,12.94
2018-04-22T01:10:05.617Z,12.80
2018-04-22T01:12:38.313Z,12.72
2018-04-22T01:15:12.992Z,12.63
2018-04-22T01:17:42.052Z,12.38
2018-04-22T01:20:11.110Z,12.46
2018-04-22T01:22:40.171Z,12.55
2018-04-22T01:25:09.232Z,12.53
2018-04-22T01:27:40.134Z,12.49
2018-04-22T01:30:09.282Z,12.42
2018-04-22T01:32:38.847Z,12.37
2018-04-22T01:35:07.924Z,11.97
2018-04-22T01:37:37.555Z,11.84
2018-04-22T01:40:06.619Z,11.61
2018-04-22T01:45:12.003Z,11.56
2018-04-22T01:47:41.042Z,11.27
2018-04-22T01:50:10.121Z,11.09
2018-04-22T01:55:14.945Z,11.29
2018-04-22T01:57:44.860Z,11.33
2018-04-22T02:00:14.007Z,11.35
2018-04-22T02:02:43.607Z,11.36
2018-04-22T02:05:12.679Z,11.49
2018-04-22T02:07:42.033Z,11.41
2018-04-22T02:10:11.079Z,11.47
2018-04-22T02:12:40.154Z,11.53
2018-04-22T02:15:09.218Z,11.45
2018-04-22T02:17:38.587Z,11.44
2018-04-22T02:20:07.633Z,11.40
2018-04-22T02:22:36.686Z,11.23
2018-04-22T02:25:06.677Z,11.12
2018-04-22T02:27:36.101Z,11.01
2018-04-22T02:30:05.298Z,10.91
2018-04-22T02:35:10.134Z,11.20
2018-04-22T02:37:39.190Z,11.26
2018-04-22T02:40:09.182Z,11.26
2018-04-22T02:42:38.246Z,11.27
2018-04-22T02:45:07.467Z,11.24
2018-04-22T02:50:13.854Z,11.39
2018-04-22T02:52:42.889Z,11.66
2018-04-22T02:55:12.471Z,11.60
2018-04-22T02:57:41.617Z,11.52
2018-04-22T03:00:11.074Z,11.45
2018-04-22T03:02:40.134Z,11.51
2018-04-22T03:05:09.710Z,11.42
2018-04-22T03:07:38.762Z,11.29
2018-04-22T03:10:09.202Z,11.26
2018-04-22T03:12:38.242Z,11.26
2018-04-22T03:15:08.058Z,11.32
2018-04-22T03:17:37.105Z,11.52
2018-04-22T03:20:06.180Z,11.42
2018-04-22T03:22:36.228Z,11.30
2018-04-22T03:25:05.307Z,11.20
2018-04-22T03:27:34.805Z,11.17
2018-04-22T03:30:03.859Z,11.13
2018-04-22T03:32:32.936Z,11.20
2018-04-22T03:35:02.605Z,11.03
2018-04-22T03:37:31.655Z,10.86
2018-04-22T03:40:01.532Z,10.71
2018-04-22T03:42:34.370Z,10.75
2018-04-22T03:45:04.007Z,10.56
2018-04-22T03:47:33.491Z,10.62
2018-04-22T03:50:02.542Z,10.61
2018-04-22T03:52:31.738Z,10.37
2018-04-22T03:55:00.791Z,10.19
2018-04-22T03:57:30.464Z,10.14
2018-04-22T03:59:59.514Z,10.03
2018-04-22T04:02:28.950Z,9.96
2018-04-22T04:04:57.987Z,9.76
2018-04-22T04:07:27.708Z,9.78
2018-04-22T04:09:56.766Z,9.63
2018-04-22T04:12:26.439Z,9.59
2018-04-22T04:14:55.511Z,9.76
2018-04-22T04:17:24.916Z,9.76
2018-04-22T04:20:11.675Z,9.74
2018-04-22T04:22:45.430Z,9.79
2018-04-22T04:28:20.813Z,9.77
2018-04-22T04:30:50.585Z,9.82
2018-04-22T04:33:19.590Z,9.59
2018-04-22T04:35:49.335Z,9.65
2018-04-22T04:38:18.399Z,9.57
2018-04-22T04:40:47.916Z,9.53
2018-04-22T04:43:16.942Z,9.70
2018-04-22T04:45:46.002Z,9.83
2018-04-22T04:48:15.056Z,9.95
2018-04-22T04:53:21.566Z,10.07
2018-04-22T04:55:50.626Z,10.05
2018-04-22T04:58:19.863Z,10.09
2018-04-22T05:00:48.936Z,10.29
2018-04-22T05:03:18.005Z,10.55
2018-04-22T05:05:47.176Z,10.61
2018-04-22T05:08:17.891Z,10.62
2018-04-22T05:10:47.047Z,10.74
2018-04-22T05:13:16.629Z,10.91
2018-04-22T05:15:45.691Z,11.04
2018-04-22T05:18:15.727Z,11.11
2018-04-22T05:20:44.802Z,11.31
2018-04-22T05:23:14.553Z,11.57
2018-04-22T05:25:43.627Z,11.68
2018-04-22T05:30:49.314Z,12.12
2018-04-22T05:35:54.114Z,12.50
2018-04-22T05:38:23.346Z,12.74
2018-04-22T05:40:52.365Z,12.83
2018-04-22T05:43:21.425Z,12.98
2018-04-22T05:45:50.479Z,13.17
2018-04-22T05:48:20.708Z,13.41
2018-04-22T05:50:49.762Z,13.65
2018-04-22T05:53:19.381Z,13.82
2018-04-22T05:55:51.054Z,14.09
2018-04-22T06:00:59.302Z,14.58
2018-04-22T06:03:31.037Z,14.80
2018-04-22T06:06:04.269Z,14.94
2018-04-22T06:08:37.651Z,15.13
2018-04-22T06:11:12.335Z,15.33
2018-04-22T06:13:44.584Z,15.51
2018-04-22T06:16:18.578Z,15.56
2018-04-22T06:18:57.450Z,15.66
2018-04-22T06:21:30.778Z,15.75
2018-04-22T06:24:03.984Z,15.81
2018-04-22T06:26:36.752Z,15.99
2018-04-22T06:29:10.088Z,16.13
2018-04-22T06:31:43.791Z,16.37
2018-04-22T06:34:16.773Z,16.52
2018-04-22T06:36:48.496Z,16.70
2018-04-22T06:39:21.205Z,16.91
2018-04-22T06:41:55.994Z,17.03
2018-04-22T06:44:29.152Z,17.15
2018-04-22T06:47:02.038Z,17.26
2018-04-22T06:49:33.491Z,17.47
2018-04-22T06:52:08.023Z,17.56
2018-04-22T06:54:40.847Z,17.72
2018-04-22T06:57:13.803Z,17.78
2018-04-22T06:59:45.849Z,17.94
2018-04-22T07:04:53.446Z,18.20
2018-04-22T07:07:25.486Z,18.30
2018-04-22T07:09:59.487Z,18.48
2018-04-22T07:12:31.829Z,18.64
2018-04-22T07:17:40.974Z,19.03
2018-04-22T07:20:13.601Z,19.19
2018-04-22T07:22:46.112Z,19.26
2018-04-22T07:27:54.979Z,19.62
2018-04-22T07:30:27.503Z,19.80
2018-04-22T07:33:00.283Z,19.75
2018-04-22T07:35:32.548Z,19.96
2018-04-22T07:38:04.380Z,20.11
2018-04-22T07:40:37.366Z,20.19
2018-04-22T07:43:09.615Z,20.18
2018-04-22T07:45:38.849Z,20.19
2018-04-22T07:53:26.859Z,20.83
2018-04-22T07:55:58.872Z,20.96
2018-04-22T07:58:31.279Z,21.02
2018-04-22T08:01:00.322Z,21.26
2018-04-22T08:03:32.117Z,21.25
2018-04-22T08:06:05.165Z,21.13
2018-04-22T08:11:14.196Z,21.08
2018-04-22T08:16:25.774Z,21.38
2018-04-22T08:18:57.728Z,21.41
2018-04-22T08:21:31.315Z,21.50
2018-04-22T08:24:02.908Z,21.73
2018-04-22T08:26:34.827Z,21.77
2018-04-22T08:29:07.608Z,21.88
2018-04-22T08:31:41.066Z,21.92
2018-04-22T08:34:12.033Z,21.97
2018-04-22T08:36:46.816Z,22.28
2018-04-22T08:39:20.579Z,22.51
2018-04-22T08:41:52.827Z,22.60
2018-04-22T08:44:24.325Z,22.72
2018-04-22T08:49:33.605Z,23.43
2018-04-22T08:52:05.904Z,23.51
2018-04-22T08:54:38.937Z,23.73
2018-04-22T08:57:12.655Z,24.25
2018-04-22T08:59:45.259Z,24.50
2018-04-22T09:02:20.209Z,25.18
2018-04-22T09:04:51.290Z,25.83
2018-04-22T09:07:24.365Z,27.08
2018-04-22T09:09:55.278Z,27.82
2018-04-22T09:12:28.282Z,28.96
2018-04-22T09:15:01.153Z,29.12
2018-04-22T09:20:09.637Z,30.39
2018-04-22T09:22:42.253Z,30.67
2018-04-22T09:25:14.597Z,32.84
2018-04-22T09:27:49.464Z,32.96
2018-04-22T09:30:24.322Z,32.97
2018-04-22T09:32:57.665Z,34.73
2018-04-22T09:38:05.561Z,36.93
2018-04-22T09:40:37.845Z,37.55
2018-04-22T09:43:09.091Z,38.15
2018-04-22T09:45:40.542Z,37.26
2018-04-22T09:48:09.630Z,38.33
2018-04-22T09:50:41.547Z,38.48
2018-04-22T09:53:12.600Z,38.30
2018-04-22T09:55:44.434Z,38.67
2018-04-22T09:58:15.960Z,38.49
2018-04-22T10:13:53.514Z,38.62
2018-04-22T10:16:25.946Z,40.03
2018-04-22T10:18:57.267Z,35.87
2018-04-22T10:21:29.876Z,33.83
2018-04-22T10:24:01.856Z,33.45
2018-04-22T10:26:33.624Z,32.34
2018-04-22T10:29:05.179Z,36.25
2018-04-22T10:31:36.913Z,36.73
2018-04-22T10:34:05.947Z,37.77
2018-04-22T10:36:37.131Z,37.93
2018-04-22T10:39:08.553Z,38.96
2018-04-22T10:41:40.566Z,41.03
2018-04-22T10:44:14.127Z,41.39
2018-04-22T10:46:47.337Z,40.91
2018-04-22T10:49:20.992Z,40.83
2018-04-22T10:51:55.774Z,42.04
2018-04-22T10:54:27.513Z,42.34
2018-04-22T10:57:00.093Z,43.43
2018-04-22T10:59:31.541Z,41.95
2018-04-22T11:02:03.200Z,39.96
2018-04-22T11:04:35.850Z,41.44
2018-04-22T11:07:07.158Z,41.91
2018-04-22T11:12:16.838Z,41.01
2018-04-22T11:14:49.386Z,41.00
2018-04-22T11:17:22.096Z,40.26
2018-04-22T11:19:53.604Z,38.66
2018-04-22T11:22:22.786Z,39.03
2018-04-22T11:24:51.833Z,40.93
2018-04-22T11:27:20.941Z,35.95
2018-04-22T11:29:51.022Z,33.36
2018-04-22T11:32:20.054Z,33.58
2018-04-22T11:34:50.501Z,33.02
2018-04-22T11:37:19.572Z,32.88
2018-04-22T11:39:53.045Z,32.22
2018-04-22T11:45:00.432Z,34.40
2018-04-22T11:47:32.248Z,32.67
2018-04-22T11:50:06.846Z,33.35
2018-04-22T11:52:38.211Z,35.63
2018-04-22T11:55:09.902Z,34.83
2018-04-22T11:57:44.416Z,32.32
2018-04-22T12:00:16.361Z,32.08
2018-04-22T12:02:48.670Z,31.87
2018-04-22T12:05:21.796Z,32.75
2018-04-22T12:10:32.789Z,35.49
2018-04-22T12:13:04.408Z,36.03
2018-04-22T12:15:36.367Z,34.06
2018-04-22T12:18:07.972Z,32.31
2018-04-22T12:20:40.012Z,30.72
2018-04-22T12:25:45.158Z,31.30
2018-04-22T12:28:17.167Z,32.23
2018-04-22T12:30:49.228Z,32.81
2018-04-22T12:33:20.011Z,33.51
2018-04-22T12:35:51.506Z,33.18
2018-04-22T12:38:23.228Z,33.96
2018-04-22T12:40:56.604Z,37.73
2018-04-22T12:43:29.117Z,40.67
2018-04-22T12:46:02.311Z,42.07
2018-04-22T12:48:33.356Z,42.23
2018-04-22T12:51:06.547Z,40.98
2018-04-22T12:53:38.677Z,35.88
2018-04-22T12:56:11.893Z,33.79
2018-04-22T12:58:43.389Z,34.27
2018-04-22T13:01:15.876Z,36.29
2018-04-22T13:06:25.134Z,38.03
2018-04-22T13:11:34.134Z,41.31
2018-04-22T13:14:05.676Z,41.40
2018-04-22T13:16:37.212Z,42.21
2018-04-22T13:19:08.631Z,43.90
2018-04-22T13:21:39.981Z,45.53
2018-04-22T13:24:12.311Z,44.98
2018-04-22T13:29:19.300Z,40.18
2018-04-22T13:31:51.129Z,38.94
2018-04-22T13:34:22.441Z,38.74
2018-04-22T13:36:53.812Z,39.62
2018-04-22T13:39:25.523Z,41.71
2018-04-22T13:41:57.420Z,41.68
2018-04-22T13:44:29.230Z,42.15
2018-04-22T13:47:01.074Z,42.37
2018-04-22T13:49:33.213Z,43.77
2018-04-22T13:52:05.226Z,45.68
2018-04-22T13:54:36.841Z,46.72
2018-04-22T13:57:09.675Z,43.94
2018-04-22T13:59:41.925Z,44.41
2018-04-22T14:02:14.196Z,45.83
2018-04-22T14:04:44.883Z,44.12
2018-04-22T14:07:16.840Z,39.45
2018-04-22T14:09:48.582Z,38.86
2018-04-22T14:12:19.508Z,39.47
2018-04-22T14:14:53.266Z,42.39
2018-04-22T14:17:25.079Z,44.30
2018-04-22T14:19:57.157Z,44.68
2018-04-22T14:22:29.427Z,42.25
2018-04-22T14:25:03.940Z,42.25
2018-04-22T14:27:36.470Z,42.90
2018-04-22T14:30:09.842Z,42.84
2018-04-22T14:32:42.437Z,42.53
2018-04-22T14:37:50.844Z,43.16
2018-04-22T14:40:22.331Z,43.16
2018-04-22T14:42:55.975Z,43.67
2018-04-22T14:45:45.397Z,42.50
2018-04-22T14:48:17.738Z,42.68
2018-04-22T14:50:49.092Z,41.95
2018-04-22T14:53:20.658Z,42.11
2018-04-22T14:58:29.002Z,44.99
2018-04-22T15:00:58.098Z,46.37
2018-04-22T15:03:29.978Z,46.04
2018-04-22T15:11:18.298Z,45.04
2018-04-22T15:13:50.549Z,43.15
2018-04-22T15:16:21.925Z,42.76
2018-04-22T15:18:52.801Z,45.18
2018-04-22T15:24:00.749Z,43.13
2018-04-22T15:26:29.817Z,43.08
2018-04-22T15:29:01.877Z,41.26
2018-04-22T15:31:33.128Z,40.78
2018-04-22T15:34:04.326Z,40.39
2018-04-22T15:36:35.945Z,38.61
2018-04-22T15:39:10.688Z,38.57
2018-04-22T15:41:42.838Z,38.77
2018-04-22T15:44:14.671Z,37.83
2018-04-22T15:46:46.122Z,38.39
2018-04-22T15:49:17.241Z,39.07
2018-04-22T15:51:48.016Z,39.72
2018-04-22T15:54:21.570Z,38.40
2018-04-22T15:56:53.425Z,37.47
2018-04-22T15:59:26.050Z,38.68
2018-04-22T16:01:58.262Z,37.92
2018-04-22T16:04:32.088Z,38.09
2018-04-22T16:09:49.429Z,38.99
2018-04-22T16:12:28.082Z,37.64
2018-04-22T16:14:59.944Z,35.10
2018-04-22T16:17:33.047Z,32.85
2018-04-22T16:22:42.594Z,31.10
2018-04-22T16:25:14.800Z,30.05
2018-04-22T16:27:47.371Z,29.46
2018-04-22T16:30:19.437Z,29.05
2018-04-22T16:32:51.265Z,28.70
2018-04-22T16:35:24.608Z,28.23
2018-04-22T16:40:32.503Z,27.86
2018-04-22T16:43:04.693Z,28.10
2018-04-22T16:45:36.143Z,27.76
2018-04-22T16:48:07.671Z,27.50
2018-04-22T16:53:17.743Z,26.88
2018-04-22T16:55:49.410Z,26.77
2018-04-22T16:58:22.509Z,26.56
2018-04-22T17:00:54.787Z,26.35
2018-04-22T17:03:27.251Z,26.24
2018-04-22T17:06:00.870Z,26.28
2018-04-22T17:08:31.427Z,26.29
2018-04-22T17:11:02.299Z,26.03
2018-04-22T17:13:32.346Z,25.80
2018-04-22T17:16:02.095Z,25.63
2018-04-22T17:18:33.131Z,25.52
2018-04-22T17:21:06.952Z,25.24
2018-04-22T17:26:17.286Z,25.10
2018-04-22T17:28:49.458Z,24.69
2018-04-22T17:31:22.104Z,24.44
2018-04-22T17:33:55.846Z,24.36
2018-04-22T17:36:30.280Z,24.02
2018-04-22T17:41:39.558Z,23.68
2018-04-22T17:44:12.822Z,23.41
2018-04-22T17:46:44.854Z,23.41
2018-04-22T17:49:17.825Z,22.80
2018-04-22T17:51:50.116Z,22.36
2018-04-22T17:57:01.436Z,22.21
2018-04-22T17:59:33.359Z,21.81
2018-04-22T18:02:05.608Z,21.50
2018-04-22T18:04:37.855Z,21.28
2018-04-22T18:07:09.882Z,21.29
2018-04-22T18:09:41.153Z,20.89
2018-04-22T18:12:14.606Z,20.64
2018-04-22T18:14:46.141Z,20.36
2018-04-22T18:17:18.949Z,20.20
2018-04-22T18:19:50.903Z,20.00
2018-04-22T18:22:22.514Z,19.86
2018-04-22T18:25:00.209Z,19.85
2018-04-22T18:27:41.157Z,19.76
2018-04-22T18:32:52.458Z,19.86
2018-04-22T18:35:25.859Z,19.83
2018-04-22T18:37:57.533Z,19.91
2018-04-22T18:40:30.853Z,19.81
2018-04-22T18:43:03.192Z,19.64
2018-04-22T18:45:35.183Z,19.51
2018-04-22T18:48:07.351Z,19.38
2018-04-22T18:53:18.478Z,19.36
2018-04-22T18:55:57.583Z,19.02
2018-04-22T19:01:05.385Z,18.81
2018-04-22T19:03:44.052Z,18.69
2018-04-22T19:08:57.420Z,18.43
2018-04-22T19:11:33.257Z,18.44
2018-04-22T19:16:43.272Z,18.23
2018-04-22T19:19:16.581Z,18.07
2018-04-22T19:21:51.011Z,17.95
2018-04-22T19:27:16.210Z,17.66
2018-04-22T19:29:50.935Z,17.52
2018-04-22T19:35:01.158Z,17.68
2018-04-22T19:37:34.538Z,17.41
2018-04-22T19:40:09.040Z,17.25
2018-04-22T19:42:41.888Z,17.26
2018-04-22T19:45:20.421Z,17.29
2018-04-22T19:47:55.241Z,17.37
2018-04-22T19:50:27.850Z,17.13
2018-04-22T19:55:55.292Z,17.12
2018-04-22T20:01:05.089Z,17.00
2018-04-22T20:06:16.194Z,16.86
2018-04-22T20:08:48.292Z,16.59
2018-04-22T20:11:20.903Z,16.41
2018-04-22T20:13:55.978Z,16.44
2018-04-22T20:16:29.607Z,16.32
2018-04-22T20:19:04.341Z,16.31
2018-04-22T20:21:36.564Z,16.41
2018-04-22T20:24:07.504Z,16.43
2018-04-22T20:29:21.025Z,16.21
2018-04-22T20:31:53.233Z,15.71
2018-04-22T20:34:28.680Z,15.15
2018-04-22T20:37:02.501Z,14.79
2018-04-22T20:39:43.145Z,14.65
2018-04-22T20:42:14.168Z,14.68
2018-04-22T20:44:45.529Z,14.75
2018-04-22T20:47:17.341Z,14.78
2018-04-22T20:49:49.690Z,14.97
2018-04-22T20:52:31.486Z,15.31
2018-04-22T20:55:03.707Z,15.23
2018-04-22T20:57:35.657Z,15.25
2018-04-22T21:00:07.583Z,15.42
2018-04-22T21:02:39.388Z,15.49
2018-04-22T21:05:11.343Z,15.41
2018-04-22T21:07:42.774Z,15.28
2018-04-22T21:12:54.821Z,15.38
2018-04-22T21:15:28.092Z,15.29
2018-04-22T21:17:59.118Z,15.38
2018-04-22T21:20:30.498Z,15.36
2018-04-22T21:23:02.574Z,15.19
2018-04-22T21:25:35.555Z,15.36
2018-04-22T21:28:07.130Z,15.50
2018-04-22T21:30:39.431Z,15.58
2018-04-22T21:33:10.992Z,15.64
2018-04-22T21:35:43.212Z,15.61
2018-04-22T21:38:14.421Z,15.60
2018-04-22T21:40:47.543Z,15.45
2018-04-22T21:43:19.193Z,15.47
2018-04-22T21:48:27.787Z,15.62
2018-04-22T21:50:59.980Z,15.42
2018-04-22T21:53:30.594Z,15.40
2018-04-22T21:56:03.064Z,15.32
2018-04-22T21:58:33.856Z,15.11
2018-04-22T22:01:05.275Z,15.06
2018-04-22T22:03:36.782Z,15.10
2018-04-22T22:06:08.908Z,15.07
2018-04-22T22:08:40.574Z,15.18
2018-04-22T22:11:11.730Z,15.26
2018-04-22T22:13:43.679Z,15.16
2018-04-22T22:16:15.408Z,15.11
2018-04-22T22:18:44.563Z,15.24
2018-04-22T22:21:16.605Z,15.27
2018-04-22T22:23:48.552Z,15.19
2018-04-22T22:26:17.701Z,15.13
2018-04-22T22:28:49.028Z,15.06
2018-04-22T22:31:20.808Z,15.02
2018-04-22T22:33:55.352Z,14.92
2018-04-22T22:36:26.657Z,14.89
2018-04-22T22:38:59.007Z,14.91
2018-04-22T22:41:32.155Z,14.95
2018-04-22T22:44:01.811Z,14.94
2018-04-22T22:46:34.706Z,14.81
2018-04-22T22:49:07.178Z,14.74
2018-04-22T22:51:39.706Z,14.78
2018-04-22T22:54:11.843Z,14.82
2018-04-22T22:56:40.882Z,14.68
2018-04-22T22:59:09.959Z,14.52
2018-04-22T23:04:15.197Z,14.50
2018-04-22T23:06:49.396Z,14.33
2018-04-22T23:09:22.187Z,14.20
2018-04-22T23:14:29.268Z,14.32
2018-04-22T23:17:02.213Z,14.34
2018-04-22T23:19:36.777Z,14.39
2018-04-22T23:22:05.831Z,14.45
2018-04-22T23:24:38.143Z,14.61
2018-04-22T23:27:10.543Z,14.76
2018-04-22T23:29:43.908Z,14.72
2018-04-22T23:32:17.653Z,14.70
2018-04-22T23:34:50.383Z,14.77
2018-04-22T23:37:25.590Z,14.85
2018-04-22T23:39:57.478Z,14.87
2018-04-22T23:45:07.675Z,14.76
2018-04-22T23:47:39.818Z,14.70
2018-04-22T23:50:12.658Z,14.67
2018-04-22T23:52:45.124Z,14.74
2018-04-22T23:55:18.038Z,14.71
